KTCC/TCC METAR and TAF weather

Enter ICAO airport designator
Station Type Date Time Source
KTCC METAR 2021/09/24 01:53 UTC NOAA

KTCC 240153Z AUTO 18007KT 10SM CLR 23/01 A2998 RMK AO2 SLP103 T02330006


Station Type Date Time Source
KTCC Decoded METAR 2021/09/24 01:53 UTC NOAA

TUCUMCARI MUNICIPAL AIRPORT , NM, United States (KTCC) 35-11N 103-36W 1235M
Sep 23, 2021 - 09:53 PM EDT / 2021.09.24 0153 UTC
Wind: from the S (180 degrees) at 8 MPH (7 KT):0
Visibility: 10 mile(s):0
Sky conditions: clear
Temperature: 73.9 F (23.3 C)
Dew Point: 33.1 F (0.6 C)
Relative Humidity: 22%
Pressure (altimeter): 29.98 in. Hg (1015 hPa)
ob: KTCC 240153Z AUTO 18007KT 10SM CLR 23/01 A2998 RMK AO2 SLP103 T02330006
cycle: 2

Station Type Date Time Source
KTCC TAF 2021/09/23 18:33 UTC NOAA

TAF KTCC 231730Z 2318/2418 20012G22KT P6SM BKN250
FM240300 21008KT P6SM BKN250

Example: see airport list